createdAt,value
2023-01-27T00:01:35.926Z,100686.25
2023-01-27T00:04:05.145Z,100684.53
2023-01-27T00:06:38.959Z,100687.06
2023-01-27T00:09:07.090Z,100687.13
2023-01-27T00:11:53.668Z,100681.09
2023-01-27T00:14:21.921Z,100683.72
2023-01-27T00:16:53.295Z,100683.66
2023-01-27T00:19:21.416Z,100675.09
2023-01-27T00:22:07.803Z,100684.44
2023-01-27T00:24:39.288Z,100683.59
2023-01-27T00:27:09.767Z,100691.97
2023-01-27T00:29:40.777Z,100688.63
2023-01-27T00:32:29.900Z,100688.75
2023-01-27T00:34:58.337Z,100693.81
2023-01-27T00:37:26.159Z,100685.13
2023-01-27T00:39:54.149Z,100700.66
2023-01-27T00:42:22.404Z,100695.69
2023-01-27T00:45:09.286Z,100690.59
2023-01-27T00:47:37.463Z,100692.16
2023-01-27T00:50:08.787Z,100686.22
2023-01-27T00:52:36.600Z,100689.88
2023-01-27T00:55:05.073Z,100676.91
2023-01-27T00:57:32.935Z,100683.03
2023-01-27T01:00:01.111Z,100680.44
2023-01-27T01:02:31.527Z,100670.13
2023-01-27T01:04:59.416Z,100667.56
2023-01-27T01:07:31.607Z,100664.03
2023-01-27T01:09:59.870Z,100669.34
2023-01-27T01:12:27.866Z,100661.53
2023-01-27T01:14:56.572Z,100674.44
2023-01-27T01:17:24.755Z,100669.31
2023-01-27T01:19:52.575Z,100664.25
2023-01-27T01:22:20.382Z,100661.72
2023-01-27T01:24:51.803Z,100660.72
2023-01-27T01:27:23.175Z,100658.13
2023-01-27T01:29:51.539Z,100666.78
2023-01-27T01:32:19.797Z,100674.34
2023-01-27T01:34:50.150Z,100668.34
2023-01-27T01:37:18.302Z,100671.84
2023-01-27T01:39:46.071Z,100668.31
2023-01-27T01:42:13.736Z,100673.53
2023-01-27T01:44:46.088Z,100671.84
2023-01-27T01:47:18.735Z,100668.41
2023-01-27T01:49:48.148Z,100665.94
2023-01-27T01:52:21.582Z,100671.75
2023-01-27T01:54:57.491Z,100667.47
2023-01-27T01:57:33.436Z,100671.88
2023-01-27T02:00:09.712Z,100679.56
2023-01-27T02:02:42.419Z,100668.34
2023-01-27T02:05:26.824Z,100661.50
2023-01-27T02:08:05.305Z,100661.59
2023-01-27T02:10:34.857Z,100665.84
2023-01-27T02:13:03.039Z,100669.19
2023-01-27T02:15:31.813Z,100667.44
2023-01-27T02:18:05.424Z,100662.34
2023-01-27T02:20:47.421Z,100664.91
2023-01-27T02:23:53.034Z,100656.44
2023-01-27T02:26:43.497Z,100653.84
2023-01-27T02:29:16.336Z,100647.91
2023-01-27T02:31:44.725Z,100650.44
2023-01-27T02:34:23.260Z,100652.84
2023-01-27T02:36:56.437Z,100653.75
2023-01-27T02:39:31.598Z,100642.59
2023-01-27T02:42:01.235Z,100642.59
2023-01-27T02:44:32.801Z,100635.00
2023-01-27T02:47:01.062Z,100629.94
2023-01-27T02:49:29.534Z,100627.37
2023-01-27T02:52:00.723Z,100636.81
2023-01-27T02:54:30.824Z,100634.25
2023-01-27T02:57:02.025Z,100637.63
2023-01-27T02:59:31.072Z,100630.69
2023-01-27T03:02:02.314Z,100640.97
2023-01-27T03:04:30.627Z,100641.81
2023-01-27T03:06:58.657Z,100641.00
2023-01-27T03:09:27.925Z,100640.13
2023-01-27T03:12:14.297Z,100615.44
2023-01-27T03:15:00.898Z,100640.19
2023-01-27T03:17:49.761Z,100640.25
2023-01-27T03:20:18.432Z,100644.53
2023-01-27T03:22:47.001Z,100640.22
2023-01-27T03:25:18.067Z,100644.44
2023-01-27T03:27:46.439Z,100639.34
2023-01-27T03:30:19.889Z,100636.78
2023-01-27T03:32:49.393Z,100641.03
2023-01-27T03:35:18.662Z,100637.63
2023-01-27T03:38:05.943Z,100636.75
2023-01-27T03:40:53.576Z,100636.78
2023-01-27T03:43:40.159Z,100612.84
2023-01-27T03:46:21.242Z,100623.91
2023-01-27T03:48:56.825Z,100635.84
2023-01-27T03:51:27.006Z,100634.19
2023-01-27T03:53:55.058Z,100636.75
2023-01-27T03:56:22.929Z,100630.81
2023-01-27T03:58:51.546Z,100624.06
2023-01-27T04:01:21.774Z,100630.94
2023-01-27T04:04:10.722Z,100631.69
2023-01-27T04:07:01.177Z,100635.16
2023-01-27T04:09:34.407Z,100625.78
2023-01-27T04:12:05.434Z,100632.59
2023-01-27T04:14:39.028Z,100624.09
2023-01-27T04:17:11.174Z,100629.25
2023-01-27T04:19:39.815Z,100636.94
2023-01-27T04:22:08.717Z,100633.47
2023-01-27T04:24:36.620Z,100637.69
2023-01-27T04:27:10.390Z,100640.37
2023-01-27T04:29:43.336Z,100640.31
2023-01-27T04:32:13.115Z,100644.63
2023-01-27T04:34:42.163Z,100642.06
2023-01-27T04:37:10.784Z,100640.34
2023-01-27T04:39:39.047Z,100639.38
2023-01-27T04:42:06.793Z,100632.59
2023-01-27T04:44:34.607Z,100638.59
2023-01-27T04:47:02.958Z,100642.94
2023-01-27T04:49:31.162Z,100654.16
2023-01-27T04:52:02.149Z,100652.34
2023-01-27T04:54:33.352Z,100646.31
2023-01-27T04:57:04.199Z,100647.09
2023-01-27T04:59:32.363Z,100654.88
2023-01-27T05:02:00.206Z,100656.53
2023-01-27T05:04:28.108Z,100655.69
2023-01-27T05:06:56.267Z,100636.84
2023-01-27T05:09:24.178Z,100658.25
2023-01-27T05:11:52.205Z,100645.44
2023-01-27T05:14:20.593Z,100659.88
2023-01-27T05:16:48.462Z,100661.63
2023-01-27T05:19:18.798Z,100666.78
2023-01-27T05:21:46.892Z,100666.78
2023-01-27T05:24:15.006Z,100645.41
2023-01-27T05:26:46.042Z,100657.34
2023-01-27T05:29:14.301Z,100665.06
2023-01-27T05:31:45.558Z,100648.88
2023-01-27T05:34:17.134Z,100674.47
2023-01-27T05:36:45.474Z,100686.47
2023-01-27T05:39:13.511Z,100676.22
2023-01-27T05:41:44.186Z,100688.19
2023-01-27T05:44:13.226Z,100690.69
2023-01-27T05:46:42.050Z,100687.22
2023-01-27T05:49:09.990Z,100689.00
2023-01-27T05:51:40.237Z,100688.94
2023-01-27T05:54:09.103Z,100679.47
2023-01-27T05:56:37.074Z,100698.41
2023-01-27T05:59:05.500Z,100696.56
2023-01-27T06:01:35.387Z,100702.53
2023-01-27T06:04:03.771Z,100700.91
2023-01-27T06:06:33.480Z,100706.94
2023-01-27T06:09:02.044Z,100703.44
2023-01-27T06:11:30.649Z,100703.38
2023-01-27T06:13:58.679Z,100696.56
2023-01-27T06:16:26.908Z,100692.28
2023-01-27T06:18:58.908Z,100686.44
2023-01-27T06:21:27.051Z,100704.31
2023-01-27T06:23:56.255Z,100706.88
2023-01-27T06:26:24.198Z,100700.84
2023-01-27T06:28:52.358Z,100703.34
2023-01-27T06:31:22.738Z,100701.63
2023-01-27T06:33:52.042Z,100706.75
2023-01-27T06:36:24.666Z,100690.44
2023-01-27T06:38:52.900Z,100707.47
2023-01-27T06:41:25.619Z,100711.69
2023-01-27T06:43:53.889Z,100711.78
2023-01-27T06:46:22.488Z,100710.88
2023-01-27T06:48:50.687Z,100716.91
2023-01-27T06:51:18.889Z,100714.31
2023-01-27T06:53:48.703Z,100712.53
2023-01-27T06:56:17.632Z,100716.81
2023-01-27T06:58:47.299Z,100718.47
2023-01-27T07:01:16.754Z,100724.53
2023-01-27T07:03:45.333Z,100718.63
2023-01-27T07:06:17.349Z,100720.19
2023-01-27T07:08:54.720Z,100716.75
2023-01-27T07:11:25.790Z,100725.25
2023-01-27T07:13:55.124Z,100714.91
2023-01-27T07:16:24.800Z,100714.97
2023-01-27T07:18:54.263Z,100720.09
2023-01-27T07:21:26.548Z,100708.28
2023-01-27T07:23:55.182Z,100709.00
2023-01-27T07:26:25.427Z,100693.69
2023-01-27T07:28:57.561Z,100716.69
2023-01-27T07:31:26.374Z,100708.94
2023-01-27T07:33:55.835Z,100724.31
2023-01-27T07:36:24.048Z,100725.19
2023-01-27T07:38:52.967Z,100728.59
2023-01-27T07:41:23.305Z,100723.34
2023-01-27T07:46:37.214Z,100725.81
2023-01-27T07:49:05.264Z,100725.75
2023-01-27T07:51:33.676Z,100717.31
2023-01-27T07:54:03.043Z,100718.75
2023-01-27T07:56:32.743Z,100718.81
2023-01-27T07:59:02.685Z,100725.53
2023-01-27T08:01:32.261Z,100713.44
2023-01-27T08:04:02.948Z,100725.34
2023-01-27T08:06:31.951Z,100716.13
2023-01-27T08:09:01.376Z,100720.09
2023-01-27T08:11:29.362Z,100729.53
2023-01-27T08:13:57.071Z,100725.91
2023-01-27T08:16:26.002Z,100720.75
2023-01-27T08:18:56.599Z,100721.56
2023-01-27T08:21:25.710Z,100694.50
2023-01-27T08:23:55.297Z,100718.41
2023-01-27T08:26:24.518Z,100721.69
2023-01-27T08:28:52.706Z,100727.72
2023-01-27T08:31:24.568Z,100731.09
2023-01-27T08:33:54.544Z,100730.12
2023-01-27T08:36:24.766Z,100701.34
2023-01-27T08:38:57.549Z,100719.28
2023-01-27T08:41:28.574Z,100723.25
2023-01-27T08:44:01.448Z,100725.34
2023-01-27T08:46:31.775Z,100727.56
2023-01-27T08:49:05.018Z,100721.72
2023-01-27T08:51:37.337Z,100727.78
2023-01-27T08:54:07.807Z,100734.09
2023-01-27T08:56:37.800Z,100726.16
2023-01-27T08:59:06.524Z,100732.44
2023-01-27T09:01:35.443Z,100732.00
2023-01-27T09:04:05.465Z,100730.12
2023-01-27T09:06:38.533Z,100737.28
2023-01-27T09:09:12.578Z,100730.94
2023-01-27T09:11:43.758Z,100732.69
2023-01-27T09:14:15.955Z,100729.28
2023-01-27T09:16:46.190Z,100724.75
2023-01-27T09:19:17.770Z,100712.03
2023-01-27T09:21:47.556Z,100730.62
2023-01-27T09:24:20.067Z,100734.22
2023-01-27T09:26:51.351Z,100735.19
2023-01-27T09:29:21.289Z,100731.94
2023-01-27T09:31:54.033Z,100737.47
2023-01-27T09:34:28.070Z,100740.91
2023-01-27T09:37:08.900Z,100733.06
2023-01-27T09:39:48.289Z,100732.09
2023-01-27T09:42:35.324Z,100737.31
2023-01-27T09:45:36.541Z,100726.53
2023-01-27T09:48:17.662Z,100728.53
2023-01-27T09:51:04.195Z,100729.38
2023-01-27T09:53:50.570Z,100727.91
2023-01-27T09:56:26.254Z,100723.38
2023-01-27T09:59:25.719Z,100719.69
2023-01-27T10:02:03.621Z,100696.59
2023-01-27T10:04:59.348Z,100724.63
2023-01-27T10:07:50.800Z,100720.09
2023-01-27T10:10:26.474Z,100694.44
2023-01-27T10:13:33.016Z,100717.47
2023-01-27T10:16:29.677Z,100715.81
2023-01-27T10:19:25.357Z,100715.97
2023-01-27T10:21:54.548Z,100720.09
2023-01-27T10:24:32.887Z,100715.88
2023-01-27T10:27:25.451Z,100721.09
2023-01-27T10:30:13.787Z,100702.19
2023-01-27T10:33:13.063Z,100713.78
2023-01-27T10:35:59.325Z,100702.53
2023-01-27T10:38:52.282Z,100718.75
2023-01-27T10:41:57.512Z,100706.09
2023-01-27T10:45:05.768Z,100710.88
2023-01-27T10:47:51.237Z,100716.94
2023-01-27T10:50:42.364Z,100710.06
2023-01-27T10:53:49.113Z,100722.94
2023-01-27T10:56:34.785Z,100722.69
2023-01-27T10:59:36.754Z,100715.84
2023-01-27T11:02:35.487Z,100715.88
2023-01-27T11:05:13.141Z,100719.50
2023-01-27T11:08:08.999Z,100725.50
2023-01-27T11:11:07.065Z,100721.41
2023-01-27T11:13:42.949Z,100728.47
2023-01-27T11:16:18.206Z,100732.41
2023-01-27T11:19:03.493Z,100728.63
2023-01-27T11:21:33.750Z,100724.19
2023-01-27T11:24:36.913Z,100727.22
2023-01-27T11:27:20.260Z,100730.97
2023-01-27T11:30:02.781Z,100729.22
2023-01-27T11:32:57.163Z,100703.47
2023-01-27T11:35:25.551Z,100725.78
2023-01-27T11:38:09.843Z,100737.16
2023-01-27T11:40:48.629Z,100737.06
2023-01-27T11:43:26.272Z,100738.87
2023-01-27T11:46:09.578Z,100747.44
2023-01-27T11:48:46.767Z,100737.22
2023-01-27T11:51:26.513Z,100756.06
2023-01-27T11:54:34.265Z,100747.31
2023-01-27T11:57:03.843Z,100756.84
2023-01-27T11:59:40.822Z,100740.34
2023-01-27T12:02:14.064Z,100742.22
2023-01-27T12:05:25.236Z,100745.47
2023-01-27T12:08:05.894Z,100728.59
2023-01-27T12:10:46.727Z,100744.44
2023-01-27T12:13:21.715Z,100751.75
2023-01-27T12:15:58.131Z,100750.22
2023-01-27T12:18:35.798Z,100747.72
2023-01-27T12:21:11.180Z,100755.19
2023-01-27T12:23:59.290Z,100746.75
2023-01-27T12:26:39.002Z,100735.28
2023-01-27T12:29:26.467Z,100752.59
2023-01-27T12:32:02.490Z,100756.00
2023-01-27T12:34:39.896Z,100757.69
2023-01-27T12:37:25.542Z,100751.00
2023-01-27T12:40:20.587Z,100745.56
2023-01-27T12:43:15.411Z,100747.22
2023-01-27T12:46:06.399Z,100755.94
2023-01-27T12:48:57.027Z,100743.00
2023-01-27T12:51:57.496Z,100739.59
2023-01-27T12:54:34.935Z,100762.94
2023-01-27T12:57:29.894Z,100759.28
2023-01-27T13:00:01.167Z,100768.87
2023-01-27T13:02:36.893Z,100758.59
2023-01-27T13:05:13.489Z,100765.53
2023-01-27T13:07:52.673Z,100768.03
2023-01-27T13:10:27.014Z,100764.84
2023-01-27T13:12:59.276Z,100767.28
2023-01-27T13:15:32.351Z,100769.06
2023-01-27T13:18:23.949Z,100767.41
2023-01-27T13:21:20.346Z,100773.25
2023-01-27T13:23:56.995Z,100770.88
2023-01-27T13:26:36.818Z,100765.59
2023-01-27T13:29:12.052Z,100764.78
2023-01-27T13:31:51.484Z,100768.25
2023-01-27T13:34:39.497Z,100736.53
2023-01-27T13:37:12.936Z,100762.94
2023-01-27T13:39:57.672Z,100766.28
2023-01-27T13:43:02.140Z,100766.44
2023-01-27T13:46:17.270Z,100774.97
2023-01-27T13:48:57.484Z,100780.19
2023-01-27T13:51:30.852Z,100781.38
2023-01-27T13:54:03.835Z,100780.56
2023-01-27T13:57:13.075Z,100777.91
2023-01-27T14:00:09.918Z,100777.03
2023-01-27T14:02:56.008Z,100780.50
2023-01-27T14:05:39.696Z,100782.06
2023-01-27T14:08:14.388Z,100789.87
2023-01-27T14:10:51.975Z,100796.66
2023-01-27T14:13:42.532Z,100805.25
2023-01-27T14:16:33.901Z,100797.56
2023-01-27T14:19:29.723Z,100806.06
2023-01-27T14:22:34.283Z,100791.41
2023-01-27T14:25:30.979Z,100805.31
2023-01-27T14:28:35.617Z,100809.63
2023-01-27T14:31:18.981Z,100806.06
2023-01-27T14:33:55.803Z,100821.59
2023-01-27T14:36:41.273Z,100821.53
2023-01-27T14:39:46.418Z,100824.13
2023-01-27T14:42:56.133Z,100818.91
2023-01-27T14:45:38.547Z,100825.75
2023-01-27T14:48:28.962Z,100826.59
2023-01-27T14:51:07.152Z,100823.13
2023-01-27T14:53:56.080Z,100829.22
2023-01-27T14:56:43.555Z,100828.47
2023-01-27T14:59:41.112Z,100827.47
2023-01-27T15:02:32.943Z,100828.25
2023-01-27T15:05:31.465Z,100831.78
2023-01-27T15:08:14.704Z,100828.31
2023-01-27T15:11:10.645Z,100838.66
2023-01-27T15:13:53.868Z,100840.28
2023-01-27T15:16:43.858Z,100847.16
2023-01-27T15:19:29.158Z,100843.06
2023-01-27T15:22:21.753Z,100851.53
2023-01-27T15:25:35.460Z,100843.81
2023-01-27T15:28:06.729Z,100855.72
2023-01-27T15:30:47.103Z,100855.72
2023-01-27T15:33:53.061Z,100854.91
2023-01-27T15:36:35.272Z,100850.59
2023-01-27T15:39:13.744Z,100851.63
2023-01-27T15:42:07.338Z,100842.03
2023-01-27T15:45:06.525Z,100851.56
2023-01-27T15:47:38.854Z,100849.69
2023-01-27T15:50:32.809Z,100847.75
2023-01-27T15:53:11.275Z,100854.78
2023-01-27T15:55:56.287Z,100864.28
2023-01-27T15:58:40.605Z,100864.22
2023-01-27T16:04:27.688Z,100868.59
2023-01-27T16:07:05.290Z,100873.78
2023-01-27T16:09:52.490Z,100869.38
2023-01-27T16:12:23.317Z,100867.53
2023-01-27T16:15:04.442Z,100877.94
2023-01-27T16:17:35.940Z,100873.63
2023-01-27T16:20:32.715Z,100869.44
2023-01-27T16:23:37.925Z,100875.38
2023-01-27T16:26:36.603Z,100877.72
2023-01-27T16:29:16.523Z,100880.47
2023-01-27T16:31:53.458Z,100877.78
2023-01-27T16:37:25.401Z,100871.88
2023-01-27T16:40:15.134Z,100867.63
2023-01-27T16:43:07.060Z,100872.69
2023-01-27T16:45:58.517Z,100867.81
2023-01-27T16:48:58.377Z,100874.63
2023-01-27T16:51:29.196Z,100874.50
2023-01-27T16:54:04.918Z,100882.97
2023-01-27T16:56:41.382Z,100881.19
2023-01-27T16:59:30.642Z,100894.84
2023-01-27T17:02:29.177Z,100887.28
2023-01-27T17:05:04.098Z,100889.91
2023-01-27T17:07:35.590Z,100861.75
2023-01-27T17:10:34.024Z,100871.22
2023-01-27T17:13:08.556Z,100881.28
2023-01-27T17:15:45.503Z,100877.03
2023-01-27T17:18:17.922Z,100891.53
2023-01-27T17:20:54.314Z,100887.25
2023-01-27T17:23:38.493Z,100892.25
2023-01-27T17:26:21.641Z,100873.63
2023-01-27T17:28:54.653Z,100889.00
2023-01-27T17:31:25.673Z,100889.81
2023-01-27T17:34:05.290Z,100896.75
2023-01-27T17:36:39.487Z,100890.59
2023-01-27T17:39:31.912Z,100899.97
2023-01-27T17:42:07.476Z,100880.28
2023-01-27T17:44:37.358Z,100901.72
2023-01-27T17:47:08.222Z,100900.72
2023-01-27T17:49:41.412Z,100901.50
2023-01-27T17:52:16.922Z,100896.75
2023-01-27T17:54:49.605Z,100883.81
2023-01-27T17:57:22.435Z,100896.56
2023-01-27T18:00:13.453Z,100898.31
2023-01-27T18:03:00.479Z,100899.03
2023-01-27T18:05:37.190Z,100900.72
2023-01-27T18:08:14.239Z,100901.72
2023-01-27T18:10:51.652Z,100903.28
2023-01-27T18:13:20.747Z,100906.69
2023-01-27T18:16:00.685Z,100908.53
2023-01-27T18:18:34.210Z,100906.84
2023-01-27T18:21:17.215Z,100902.66
2023-01-27T18:24:05.247Z,100878.84
2023-01-27T18:26:45.569Z,100905.41
2023-01-27T18:29:44.796Z,100886.59
2023-01-27T18:32:21.295Z,100906.97
2023-01-27T18:34:58.394Z,100908.63
2023-01-27T18:37:37.449Z,100908.75
2023-01-27T18:40:30.166Z,100908.00
2023-01-27T18:43:03.139Z,100891.75
2023-01-27T18:45:34.093Z,100913.75
2023-01-27T18:48:12.125Z,100907.03
2023-01-27T18:50:47.991Z,100907.81
2023-01-27T18:53:26.001Z,100911.28
2023-01-27T18:55:58.811Z,100913.12
2023-01-27T18:58:32.537Z,100922.47
2023-01-27T19:01:15.520Z,100918.09
2023-01-27T19:03:52.223Z,100920.63
2023-01-27T19:06:23.873Z,100929.25
2023-01-27T19:08:53.399Z,100931.87
2023-01-27T19:11:24.611Z,100928.37
2023-01-27T19:13:57.017Z,100924.00
2023-01-27T19:16:38.244Z,100930.97
2023-01-27T19:19:14.189Z,100938.69
2023-01-27T19:21:48.759Z,100936.88
2023-01-27T19:24:18.634Z,100931.72
2023-01-27T19:26:51.794Z,100930.03
2023-01-27T19:29:22.221Z,100929.19
2023-01-27T19:31:58.336Z,100934.19
2023-01-27T19:34:29.512Z,100918.13
2023-01-27T19:37:00.619Z,100917.34
2023-01-27T19:39:32.099Z,100936.03
2023-01-27T19:42:03.176Z,100935.19
2023-01-27T19:44:32.621Z,100938.59
2023-01-27T19:47:03.022Z,100938.56
2023-01-27T19:49:34.840Z,100937.66
2023-01-27T19:52:07.417Z,100934.47
2023-01-27T19:54:40.054Z,100935.06
2023-01-27T19:57:17.410Z,100939.28
2023-01-27T19:59:47.292Z,100933.59
2023-01-27T20:02:20.050Z,100930.22
2023-01-27T20:04:50.134Z,100932.72
2023-01-27T20:07:19.251Z,100941.16
2023-01-27T20:09:47.989Z,100935.19
2023-01-27T20:12:17.966Z,100935.34
2023-01-27T20:14:47.001Z,100939.34
2023-01-27T20:17:20.268Z,100946.16
2023-01-27T20:19:51.412Z,100948.91
2023-01-27T20:22:20.188Z,100945.31
2023-01-27T20:24:53.464Z,100947.84
2023-01-27T20:27:22.023Z,100939.34
2023-01-27T20:29:50.889Z,100947.84
2023-01-27T20:32:24.432Z,100943.59
2023-01-27T20:34:53.882Z,100949.63
2023-01-27T20:37:26.831Z,100944.53
2023-01-27T20:39:56.533Z,100943.75
2023-01-27T20:42:27.953Z,100946.22
2023-01-27T20:44:59.641Z,100942.75
2023-01-27T20:47:28.032Z,100948.69
2023-01-27T20:49:56.705Z,100941.00
2023-01-27T20:52:27.849Z,100949.53
2023-01-27T20:54:56.272Z,100939.34
2023-01-27T20:57:25.633Z,100936.75
2023-01-27T20:59:53.730Z,100924.78
2023-01-27T21:02:22.154Z,100951.25
2023-01-27T21:04:49.997Z,100946.09
2023-01-27T21:07:18.466Z,100951.19
2023-01-27T21:09:46.770Z,100946.22
2023-01-27T21:12:14.705Z,100941.06
2023-01-27T21:14:42.790Z,100937.53
2023-01-27T21:17:12.118Z,100944.44
2023-01-27T21:19:40.122Z,100930.66
2023-01-27T21:22:10.975Z,100937.47
2023-01-27T21:24:39.773Z,100946.06
2023-01-27T21:27:07.991Z,100940.94
2023-01-27T21:29:36.158Z,100955.50
2023-01-27T21:32:04.482Z,100935.03
2023-01-27T21:34:32.399Z,100942.69
2023-01-27T21:37:03.381Z,100942.69
2023-01-27T21:39:32.945Z,100937.59
2023-01-27T21:42:25.105Z,100934.91
2023-01-27T21:45:11.875Z,100945.22
2023-01-27T21:47:40.021Z,100947.06
2023-01-27T21:50:11.198Z,100950.41
2023-01-27T21:52:42.580Z,100946.16
2023-01-27T21:55:14.347Z,100943.62
2023-01-27T21:57:43.601Z,100949.50
2023-01-27T22:00:13.960Z,100945.22
2023-01-27T22:02:45.508Z,100949.63
2023-01-27T22:05:13.710Z,100950.34
2023-01-27T22:07:42.325Z,100954.59
2023-01-27T22:10:15.828Z,100958.87
2023-01-27T22:12:44.247Z,100964.12
2023-01-27T22:15:14.994Z,100963.19
2023-01-27T22:17:44.372Z,100958.84
2023-01-27T22:20:17.200Z,100963.16
2023-01-27T22:22:45.628Z,100961.38
2023-01-27T22:25:16.449Z,100955.41
2023-01-27T22:27:45.181Z,100959.66
2023-01-27T22:30:19.809Z,100957.91
2023-01-27T22:32:50.743Z,100949.41
2023-01-27T22:35:21.997Z,100957.06
2023-01-27T22:37:56.178Z,100958.72
2023-01-27T22:40:28.776Z,100956.16
2023-01-27T22:42:56.579Z,100956.16
2023-01-27T22:45:25.766Z,100957.03
2023-01-27T22:47:53.581Z,100961.38
2023-01-27T22:50:21.411Z,100970.91
2023-01-27T22:52:49.597Z,100968.31
2023-01-27T22:55:17.985Z,100951.19
2023-01-27T22:57:49.030Z,100964.78
2023-01-27T23:00:17.671Z,100969.88
2023-01-27T23:02:45.510Z,100960.41
2023-01-27T23:05:13.688Z,100969.03
2023-01-27T23:07:41.985Z,100957.06
2023-01-27T23:10:10.390Z,100961.31
2023-01-27T23:12:38.406Z,100963.00
2023-01-27T23:15:07.304Z,100963.84
2023-01-27T23:17:35.571Z,100959.56
2023-01-27T23:20:03.555Z,100965.56
2023-01-27T23:22:33.745Z,100969.88
2023-01-27T23:25:01.719Z,100968.13
2023-01-27T23:27:30.934Z,100976.84
2023-01-27T23:29:59.046Z,100972.47
2023-01-27T23:32:26.905Z,100982.75
2023-01-27T23:34:57.747Z,100972.44
2023-01-27T23:37:28.707Z,100981.03
2023-01-27T23:39:56.677Z,100979.34
2023-01-27T23:42:24.733Z,100984.44
2023-01-27T23:44:55.934Z,100979.28
2023-01-27T23:47:23.686Z,100988.75
2023-01-27T23:49:51.376Z,100981.91
2023-01-27T23:52:19.588Z,100985.28
2023-01-27T23:54:47.349Z,100987.84
2023-01-27T23:57:15.437Z,100963.06
2023-01-27T23:59:43.656Z,100978.44
